sensor_id;sensor_type;location;lat;lon;timestamp;temperature;humidity
18597;DHT22;9428;50.950;6.912;2023-06-01T00:00:41;17.70;99.90
18597;DHT22;9428;50.950;6.912;2023-06-01T00:03:30;17.70;99.90
18597;DHT22;9428;50.950;6.912;2023-06-01T00:06:17;17.70;99.90
18597;DHT22;9428;50.950;6.912;2023-06-01T00:09:06;17.70;99.90
18597;DHT22;9428;50.950;6.912;2023-06-01T00:11:53;17.70;99.90
18597;DHT22;9428;50.950;6.912;2023-06-01T00:14:41;17.60;99.90
18597;DHT22;9428;50.950;6.912;2023-06-01T00:17:28;17.50;99.90
18597;DHT22;9428;50.950;6.912;2023-06-01T00:20:16;17.40;99.90
18597;DHT22;9428;50.950;6.912;2023-06-01T00:23:04;17.50;99.90
18597;DHT22;9428;50.950;6.912;2023-06-01T00:25:52;17.40;99.90
18597;DHT22;9428;50.950;6.912;2023-06-01T00:28:40;17.30;99.90
18597;DHT22;9428;50.950;6.912;2023-06-01T00:31:27;17.30;99.90
18597;DHT22;9428;50.950;6.912;2023-06-01T00:34:14;17.30;99.90
18597;DHT22;9428;50.950;6.912;2023-06-01T00:37:01;17.40;99.90
18597;DHT22;9428;50.950;6.912;2023-06-01T00:39:48;17.20;99.90
18597;DHT22;9428;50.950;6.912;2023-06-01T00:42:37;17.20;99.90
18597;DHT22;9428;50.950;6.912;2023-06-01T00:45:24;17.30;99.90
18597;DHT22;9428;50.950;6.912;2023-06-01T00:48:12;17.20;99.90
18597;DHT22;9428;50.950;6.912;2023-06-01T00:51:01;17.30;99.90
18597;DHT22;9428;50.950;6.912;2023-06-01T00:53:48;17.30;99.90
18597;DHT22;9428;50.950;6.912;2023-06-01T00:56:36;17.20;99.90
18597;DHT22;9428;50.950;6.912;2023-06-01T00:59:24;17.30;99.90
18597;DHT22;9428;50.950;6.912;2023-06-01T01:02:12;17.20;99.90
18597;DHT22;9428;50.950;6.912;2023-06-01T01:05:01;17.20;99.90
18597;DHT22;9428;50.950;6.912;2023-06-01T01:07:58;17.10;99.90
18597;DHT22;9428;50.950;6.912;2023-06-01T01:10:53;17.10;99.90
18597;DHT22;9428;50.950;6.912;2023-06-01T01:13:48;17.10;99.90
18597;DHT22;9428;50.950;6.912;2023-06-01T01:16:44;17.00;99.90
18597;DHT22;9428;50.950;6.912;2023-06-01T01:19:49;16.90;99.90
18597;DHT22;9428;50.950;6.912;2023-06-01T01:22:47;16.80;99.90
18597;DHT22;9428;50.950;6.912;2023-06-01T01:26:13;16.80;99.90
18597;DHT22;9428;50.950;6.912;2023-06-01T01:29:05;16.70;99.90
18597;DHT22;9428;50.950;6.912;2023-06-01T01:31:55;16.80;99.90
18597;DHT22;9428;50.950;6.912;2023-06-01T01:34:43;16.70;99.90
18597;DHT22;9428;50.950;6.912;2023-06-01T01:37:32;16.70;99.90
18597;DHT22;9428;50.950;6.912;2023-06-01T01:40:20;16.70;99.90
18597;DHT22;9428;50.950;6.912;2023-06-01T01:43:07;16.70;99.90
18597;DHT22;9428;50.950;6.912;2023-06-01T01:45:59;16.60;99.90
18597;DHT22;9428;50.950;6.912;2023-06-01T01:48:52;16.60;99.90
18597;DHT22;9428;50.950;6.912;2023-06-01T01:51:49;16.40;99.90
18597;DHT22;9428;50.950;6.912;2023-06-01T01:54:39;16.40;99.90
18597;DHT22;9428;50.950;6.912;2023-06-01T01:57:29;16.40;99.90
18597;DHT22;9428;50.950;6.912;2023-06-01T02:00:19;16.50;99.90
18597;DHT22;9428;50.950;6.912;2023-06-01T02:03:14;16.40;99.90
18597;DHT22;9428;50.950;6.912;2023-06-01T02:06:02;16.40;99.90
18597;DHT22;9428;50.950;6.912;2023-06-01T02:08:49;16.10;99.90
18597;DHT22;9428;50.950;6.912;2023-06-01T02:11:37;16.50;99.90
18597;DHT22;9428;50.950;6.912;2023-06-01T02:14:24;16.20;99.90
18597;DHT22;9428;50.950;6.912;2023-06-01T02:17:11;16.60;99.90
18597;DHT22;9428;50.950;6.912;2023-06-01T02:20:03;16.30;99.90
18597;DHT22;9428;50.950;6.912;2023-06-01T02:22:50;16.20;99.90
18597;DHT22;9428;50.950;6.912;2023-06-01T02:25:37;16.20;99.90
18597;DHT22;9428;50.950;6.912;2023-06-01T02:28:25;16.20;99.90
18597;DHT22;9428;50.950;6.912;2023-06-01T02:31:13;16.30;99.90
18597;DHT22;9428;50.950;6.912;2023-06-01T02:34:01;16.10;99.90
18597;DHT22;9428;50.950;6.912;2023-06-01T02:36:49;16.20;99.90
18597;DHT22;9428;50.950;6.912;2023-06-01T02:39:37;16.00;99.90
18597;DHT22;9428;50.950;6.912;2023-06-01T02:42:24;16.10;99.90
18597;DHT22;9428;50.950;6.912;2023-06-01T02:45:11;16.00;99.90
18597;DHT22;9428;50.950;6.912;2023-06-01T02:47:58;16.00;99.90
18597;DHT22;9428;50.950;6.912;2023-06-01T02:50:45;16.00;99.90
18597;DHT22;9428;50.950;6.912;2023-06-01T02:53:35;16.10;99.90
18597;DHT22;9428;50.950;6.912;2023-06-01T02:56:22;15.90;99.90
18597;DHT22;9428;50.950;6.912;2023-06-01T02:59:09;15.90;99.90
18597;DHT22;9428;50.950;6.912;2023-06-01T03:01:56;16.30;99.90
18597;DHT22;9428;50.950;6.912;2023-06-01T03:04:44;16.00;99.90
18597;DHT22;9428;50.950;6.912;2023-06-01T03:07:31;15.60;99.90
18597;DHT22;9428;50.950;6.912;2023-06-01T03:10:20;15.80;99.90
18597;DHT22;9428;50.950;6.912;2023-06-01T03:13:07;16.00;99.90
18597;DHT22;9428;50.950;6.912;2023-06-01T03:15:54;15.70;99.90
18597;DHT22;9428;50.950;6.912;2023-06-01T03:18:41;15.60;99.90
18597;DHT22;9428;50.950;6.912;2023-06-01T03:21:29;15.90;99.90
18597;DHT22;9428;50.950;6.912;2023-06-01T03:24:17;15.40;99.90
18597;DHT22;9428;50.950;6.912;2023-06-01T03:27:06;15.50;99.90
18597;DHT22;9428;50.950;6.912;2023-06-01T03:29:53;15.40;99.90
18597;DHT22;9428;50.950;6.912;2023-06-01T03:32:41;15.40;99.90
18597;DHT22;9428;50.950;6.912;2023-06-01T03:35:29;15.30;99.90
18597;DHT22;9428;50.950;6.912;2023-06-01T03:38:16;15.90;99.90
18597;DHT22;9428;50.950;6.912;2023-06-01T03:41:03;15.20;99.90
18597;DHT22;9428;50.950;6.912;2023-06-01T03:43:52;15.20;99.90
18597;DHT22;9428;50.950;6.912;2023-06-01T03:46:39;15.40;99.90
18597;DHT22;9428;50.950;6.912;2023-06-01T03:49:26;15.40;99.90
18597;DHT22;9428;50.950;6.912;2023-06-01T03:52:13;15.10;99.90
18597;DHT22;9428;50.950;6.912;2023-06-01T03:55:03;15.10;99.90
18597;DHT22;9428;50.950;6.912;2023-06-01T03:57:54;15.10;99.90
18597;DHT22;9428;50.950;6.912;2023-06-01T04:00:42;15.00;99.90
18597;DHT22;9428;50.950;6.912;2023-06-01T04:03:32;14.90;99.90
18597;DHT22;9428;50.950;6.912;2023-06-01T04:06:19;15.00;99.90
18597;DHT22;9428;50.950;6.912;2023-06-01T04:09:07;15.00;99.90
18597;DHT22;9428;50.950;6.912;2023-06-01T04:11:55;15.00;99.90
18597;DHT22;9428;50.950;6.912;2023-06-01T04:14:42;14.80;99.90
18597;DHT22;9428;50.950;6.912;2023-06-01T04:17:31;14.80;99.90
18597;DHT22;9428;50.950;6.912;2023-06-01T04:20:18;15.00;99.90
18597;DHT22;9428;50.950;6.912;2023-06-01T04:23:06;15.40;99.90
18597;DHT22;9428;50.950;6.912;2023-06-01T04:25:53;14.90;99.90
18597;DHT22;9428;50.950;6.912;2023-06-01T04:28:45;14.90;99.90
18597;DHT22;9428;50.950;6.912;2023-06-01T04:31:34;14.80;99.90
18597;DHT22;9428;50.950;6.912;2023-06-01T04:34:23;14.80;99.90
18597;DHT22;9428;50.950;6.912;2023-06-01T04:37:10;14.90;99.90
18597;DHT22;9428;50.950;6.912;2023-06-01T04:39:58;14.90;99.90
18597;DHT22;9428;50.950;6.912;2023-06-01T04:42:45;15.40;99.90
18597;DHT22;9428;50.950;6.912;2023-06-01T04:45:34;14.70;99.90
18597;DHT22;9428;50.950;6.912;2023-06-01T04:48:24;14.70;99.90
18597;DHT22;9428;50.950;6.912;2023-06-01T04:51:13;14.80;99.90
18597;DHT22;9428;50.950;6.912;2023-06-01T04:54:05;14.70;99.90
18597;DHT22;9428;50.950;6.912;2023-06-01T04:56:53;14.50;99.90
18597;DHT22;9428;50.950;6.912;2023-06-01T04:59:40;14.40;99.90
18597;DHT22;9428;50.950;6.912;2023-06-01T05:02:28;14.70;99.90
18597;DHT22;9428;50.950;6.912;2023-06-01T05:05:15;14.50;99.90
18597;DHT22;9428;50.950;6.912;2023-06-01T05:08:04;14.50;99.90
18597;DHT22;9428;50.950;6.912;2023-06-01T05:10:51;14.70;99.90
18597;DHT22;9428;50.950;6.912;2023-06-01T05:13:39;14.60;99.90
18597;DHT22;9428;50.950;6.912;2023-06-01T05:16:26;14.80;99.90
18597;DHT22;9428;50.950;6.912;2023-06-01T05:19:14;14.50;99.90
18597;DHT22;9428;50.950;6.912;2023-06-01T05:22:01;15.30;99.90
18597;DHT22;9428;50.950;6.912;2023-06-01T05:24:50;14.50;99.90
18597;DHT22;9428;50.950;6.912;2023-06-01T05:27:37;14.80;99.90
18597;DHT22;9428;50.950;6.912;2023-06-01T05:30:25;14.50;99.90
18597;DHT22;9428;50.950;6.912;2023-06-01T05:33:12;14.60;99.90
18597;DHT22;9428;50.950;6.912;2023-06-01T05:35:59;14.70;99.90
18597;DHT22;9428;50.950;6.912;2023-06-01T05:38:47;14.80;99.90
18597;DHT22;9428;50.950;6.912;2023-06-01T05:41:35;14.60;99.90
18597;DHT22;9428;50.950;6.912;2023-06-01T05:44:23;15.30;99.90
18597;DHT22;9428;50.950;6.912;2023-06-01T05:47:10;14.90;99.90
18597;DHT22;9428;50.950;6.912;2023-06-01T05:50:00;14.90;99.90
18597;DHT22;9428;50.950;6.912;2023-06-01T05:52:47;14.80;99.90
18597;DHT22;9428;50.950;6.912;2023-06-01T05:55:34;15.00;99.90
18597;DHT22;9428;50.950;6.912;2023-06-01T05:58:23;14.90;99.90
18597;DHT22;9428;50.950;6.912;2023-06-01T06:01:10;15.00;99.90
18597;DHT22;9428;50.950;6.912;2023-06-01T06:03:57;14.80;99.90
18597;DHT22;9428;50.950;6.912;2023-06-01T06:06:44;14.80;99.90
18597;DHT22;9428;50.950;6.912;2023-06-01T06:09:32;14.80;99.90
18597;DHT22;9428;50.950;6.912;2023-06-01T06:12:20;14.90;99.90
18597;DHT22;9428;50.950;6.912;2023-06-01T06:15:09;15.40;99.90
18597;DHT22;9428;50.950;6.912;2023-06-01T06:17:57;14.90;99.90
18597;DHT22;9428;50.950;6.912;2023-06-01T06:20:44;14.80;99.90
18597;DHT22;9428;50.950;6.912;2023-06-01T06:23:31;14.70;99.90
18597;DHT22;9428;50.950;6.912;2023-06-01T06:26:18;15.50;99.90
18597;DHT22;9428;50.950;6.912;2023-06-01T06:29:06;14.90;99.90
18597;DHT22;9428;50.950;6.912;2023-06-01T06:31:55;14.80;99.90
18597;DHT22;9428;50.950;6.912;2023-06-01T06:34:42;14.80;99.90
18597;DHT22;9428;50.950;6.912;2023-06-01T06:37:29;15.50;99.90
18597;DHT22;9428;50.950;6.912;2023-06-01T06:40:16;14.80;99.90
18597;DHT22;9428;50.950;6.912;2023-06-01T06:43:04;15.90;99.90
18597;DHT22;9428;50.950;6.912;2023-06-01T06:45:51;15.00;99.90
18597;DHT22;9428;50.950;6.912;2023-06-01T06:48:39;14.80;99.90
18597;DHT22;9428;50.950;6.912;2023-06-01T06:51:27;14.70;99.90
18597;DHT22;9428;50.950;6.912;2023-06-01T06:54:14;14.70;99.90
18597;DHT22;9428;50.950;6.912;2023-06-01T06:57:01;15.00;99.90
18597;DHT22;9428;50.950;6.912;2023-06-01T06:59:49;15.00;99.90
18597;DHT22;9428;50.950;6.912;2023-06-01T07:02:36;15.00;99.90
18597;DHT22;9428;50.950;6.912;2023-06-01T07:05:32;15.00;99.90
18597;DHT22;9428;50.950;6.912;2023-06-01T07:08:26;15.20;99.90
18597;DHT22;9428;50.950;6.912;2023-06-01T07:11:13;14.80;99.90
18597;DHT22;9428;50.950;6.912;2023-06-01T07:14:01;14.80;99.90
18597;DHT22;9428;50.950;6.912;2023-06-01T07:16:51;14.90;99.90
18597;DHT22;9428;50.950;6.912;2023-06-01T07:19:40;14.60;99.90
18597;DHT22;9428;50.950;6.912;2023-06-01T07:22:29;14.80;99.90
18597;DHT22;9428;50.950;6.912;2023-06-01T07:25:16;15.20;99.90
18597;DHT22;9428;50.950;6.912;2023-06-01T07:28:03;15.30;99.90
18597;DHT22;9428;50.950;6.912;2023-06-01T07:30:53;15.00;99.90
18597;DHT22;9428;50.950;6.912;2023-06-01T07:33:40;15.80;99.90
18597;DHT22;9428;50.950;6.912;2023-06-01T07:36:27;15.10;99.90
18597;DHT22;9428;50.950;6.912;2023-06-01T07:39:24;15.30;99.90
18597;DHT22;9428;50.950;6.912;2023-06-01T07:42:11;15.40;99.90
18597;DHT22;9428;50.950;6.912;2023-06-01T07:44:58;16.00;99.90
18597;DHT22;9428;50.950;6.912;2023-06-01T07:47:45;15.10;99.90
18597;DHT22;9428;50.950;6.912;2023-06-01T07:50:33;16.00;99.90
18597;DHT22;9428;50.950;6.912;2023-06-01T07:53:20;15.30;99.90
18597;DHT22;9428;50.950;6.912;2023-06-01T07:56:09;15.30;99.90
18597;DHT22;9428;50.950;6.912;2023-06-01T07:58:56;15.20;99.90
18597;DHT22;9428;50.950;6.912;2023-06-01T08:01:43;15.40;99.90
18597;DHT22;9428;50.950;6.912;2023-06-01T08:04:31;15.60;99.90
18597;DHT22;9428;50.950;6.912;2023-06-01T08:07:19;15.20;99.90
18597;DHT22;9428;50.950;6.912;2023-06-01T08:10:08;15.50;99.90
18597;DHT22;9428;50.950;6.912;2023-06-01T08:12:57;15.30;99.90
18597;DHT22;9428;50.950;6.912;2023-06-01T08:15:45;15.20;99.90
18597;DHT22;9428;50.950;6.912;2023-06-01T08:18:33;15.20;99.90
18597;DHT22;9428;50.950;6.912;2023-06-01T08:21:20;15.70;99.90
18597;DHT22;9428;50.950;6.912;2023-06-01T08:24:08;15.40;99.90
18597;DHT22;9428;50.950;6.912;2023-06-01T08:26:56;15.30;99.90
18597;DHT22;9428;50.950;6.912;2023-06-01T08:29:45;15.40;99.90
18597;DHT22;9428;50.950;6.912;2023-06-01T08:32:33;15.00;99.90
18597;DHT22;9428;50.950;6.912;2023-06-01T08:35:20;15.50;99.90
18597;DHT22;9428;50.950;6.912;2023-06-01T08:38:07;15.20;99.90
18597;DHT22;9428;50.950;6.912;2023-06-01T08:40:55;16.10;99.90
18597;DHT22;9428;50.950;6.912;2023-06-01T08:43:44;15.50;99.90
18597;DHT22;9428;50.950;6.912;2023-06-01T08:46:36;15.40;99.90
18597;DHT22;9428;50.950;6.912;2023-06-01T08:49:27;15.60;99.90
18597;DHT22;9428;50.950;6.912;2023-06-01T08:52:19;15.60;99.90
18597;DHT22;9428;50.950;6.912;2023-06-01T08:55:07;15.10;99.90
18597;DHT22;9428;50.950;6.912;2023-06-01T08:57:55;15.30;99.90
18597;DHT22;9428;50.950;6.912;2023-06-01T09:00:47;15.60;99.90
18597;DHT22;9428;50.950;6.912;2023-06-01T09:03:36;15.60;99.90
18597;DHT22;9428;50.950;6.912;2023-06-01T09:06:23;15.70;99.90
18597;DHT22;9428;50.950;6.912;2023-06-01T09:09:12;15.90;99.90
18597;DHT22;9428;50.950;6.912;2023-06-01T09:12:19;15.70;99.90
18597;DHT22;9428;50.950;6.912;2023-06-01T09:15:11;15.90;99.90
18597;DHT22;9428;50.950;6.912;2023-06-01T09:18:06;15.90;99.90
18597;DHT22;9428;50.950;6.912;2023-06-01T09:20:55;15.90;99.90
18597;DHT22;9428;50.950;6.912;2023-06-01T09:23:56;16.10;99.90
18597;DHT22;9428;50.950;6.912;2023-06-01T09:26:47;16.30;99.90
18597;DHT22;9428;50.950;6.912;2023-06-01T09:29:34;16.30;99.90
18597;DHT22;9428;50.950;6.912;2023-06-01T09:32:22;16.70;99.90
18597;DHT22;9428;50.950;6.912;2023-06-01T09:35:10;16.30;99.90
18597;DHT22;9428;50.950;6.912;2023-06-01T09:37:58;16.20;99.90
18597;DHT22;9428;50.950;6.912;2023-06-01T09:40:58;16.60;99.90
18597;DHT22;9428;50.950;6.912;2023-06-01T09:43:46;16.70;99.90
18597;DHT22;9428;50.950;6.912;2023-06-01T09:46:46;16.80;99.90
18597;DHT22;9428;50.950;6.912;2023-06-01T09:49:35;16.60;99.90
18597;DHT22;9428;50.950;6.912;2023-06-01T09:52:23;16.70;99.90
18597;DHT22;9428;50.950;6.912;2023-06-01T09:55:11;16.80;99.90
18597;DHT22;9428;50.950;6.912;2023-06-01T09:58:17;16.90;99.90
18597;DHT22;9428;50.950;6.912;2023-06-01T10:01:05;17.00;99.90
18597;DHT22;9428;50.950;6.912;2023-06-01T10:03:56;17.10;99.90
18597;DHT22;9428;50.950;6.912;2023-06-01T10:06:45;16.90;99.90
18597;DHT22;9428;50.950;6.912;2023-06-01T10:09:35;16.90;99.90
18597;DHT22;9428;50.950;6.912;2023-06-01T10:12:26;17.00;99.90
18597;DHT22;9428;50.950;6.912;2023-06-01T10:15:14;17.10;99.90
18597;DHT22;9428;50.950;6.912;2023-06-01T10:18:01;17.20;99.90
18597;DHT22;9428;50.950;6.912;2023-06-01T10:20:49;17.10;99.90
18597;DHT22;9428;50.950;6.912;2023-06-01T10:23:37;17.20;99.90
18597;DHT22;9428;50.950;6.912;2023-06-01T10:26:26;17.10;99.90
18597;DHT22;9428;50.950;6.912;2023-06-01T10:29:17;17.30;99.90
18597;DHT22;9428;50.950;6.912;2023-06-01T10:32:41;17.40;99.90
18597;DHT22;9428;50.950;6.912;2023-06-01T10:35:53;17.40;99.90
18597;DHT22;9428;50.950;6.912;2023-06-01T10:38:40;17.40;99.90
18597;DHT22;9428;50.950;6.912;2023-06-01T10:41:29;17.40;99.90
18597;DHT22;9428;50.950;6.912;2023-06-01T10:44:48;17.40;99.90
18597;DHT22;9428;50.950;6.912;2023-06-01T10:47:46;17.40;99.90
18597;DHT22;9428;50.950;6.912;2023-06-01T10:50:34;17.60;99.90
18597;DHT22;9428;50.950;6.912;2023-06-01T10:53:27;17.70;99.90
18597;DHT22;9428;50.950;6.912;2023-06-01T10:56:19;17.80;99.90
18597;DHT22;9428;50.950;6.912;2023-06-01T10:59:11;17.70;99.90
18597;DHT22;9428;50.950;6.912;2023-06-01T11:02:04;17.90;99.90
18597;DHT22;9428;50.950;6.912;2023-06-01T11:04:53;17.80;99.90
18597;DHT22;9428;50.950;6.912;2023-06-01T11:07:41;17.90;99.90
18597;DHT22;9428;50.950;6.912;2023-06-01T11:10:54;17.90;99.90
18597;DHT22;9428;50.950;6.912;2023-06-01T11:13:42;18.00;99.90
18597;DHT22;9428;50.950;6.912;2023-06-01T11:16:30;18.30;99.90
18597;DHT22;9428;50.950;6.912;2023-06-01T11:19:20;18.20;99.90
18597;DHT22;9428;50.950;6.912;2023-06-01T11:22:10;18.30;99.90
18597;DHT22;9428;50.950;6.912;2023-06-01T11:24:58;18.50;99.90
18597;DHT22;9428;50.950;6.912;2023-06-01T11:27:45;18.50;99.90
18597;DHT22;9428;50.950;6.912;2023-06-01T11:30:35;18.60;99.90
18597;DHT22;9428;50.950;6.912;2023-06-01T11:33:22;18.70;99.90
18597;DHT22;9428;50.950;6.912;2023-06-01T11:36:12;18.60;99.90
18597;DHT22;9428;50.950;6.912;2023-06-01T11:39:03;18.60;99.90
18597;DHT22;9428;50.950;6.912;2023-06-01T11:42:04;18.80;99.90
18597;DHT22;9428;50.950;6.912;2023-06-01T11:44:57;18.90;99.90
18597;DHT22;9428;50.950;6.912;2023-06-01T11:47:45;19.00;99.90
18597;DHT22;9428;50.950;6.912;2023-06-01T11:50:32;19.00;99.90
18597;DHT22;9428;50.950;6.912;2023-06-01T11:53:21;19.20;99.90
18597;DHT22;9428;50.950;6.912;2023-06-01T11:56:09;19.10;99.90
18597;DHT22;9428;50.950;6.912;2023-06-01T11:59:00;18.60;99.90
18597;DHT22;9428;50.950;6.912;2023-06-01T12:01:48;19.00;99.90
18597;DHT22;9428;50.950;6.912;2023-06-01T12:04:35;18.90;99.90
18597;DHT22;9428;50.950;6.912;2023-06-01T12:07:23;19.20;99.90
18597;DHT22;9428;50.950;6.912;2023-06-01T12:10:13;19.10;99.90
18597;DHT22;9428;50.950;6.912;2023-06-01T12:13:01;19.00;99.90
18597;DHT22;9428;50.950;6.912;2023-06-01T12:15:51;18.90;99.90
18597;DHT22;9428;50.950;6.912;2023-06-01T12:18:39;19.20;99.90
18597;DHT22;9428;50.950;6.912;2023-06-01T12:21:26;19.20;99.90
18597;DHT22;9428;50.950;6.912;2023-06-01T12:24:13;19.10;99.90
18597;DHT22;9428;50.950;6.912;2023-06-01T12:27:03;19.00;99.90
18597;DHT22;9428;50.950;6.912;2023-06-01T12:30:01;19.00;99.90
18597;DHT22;9428;50.950;6.912;2023-06-01T12:32:48;19.20;99.90
18597;DHT22;9428;50.950;6.912;2023-06-01T12:35:49;19.30;99.90
18597;DHT22;9428;50.950;6.912;2023-06-01T12:38:36;19.30;99.90
18597;DHT22;9428;50.950;6.912;2023-06-01T12:41:24;19.40;99.90
18597;DHT22;9428;50.950;6.912;2023-06-01T12:44:18;19.50;99.90
18597;DHT22;9428;50.950;6.912;2023-06-01T12:47:06;19.30;99.90
18597;DHT22;9428;50.950;6.912;2023-06-01T12:50:04;19.40;99.90
18597;DHT22;9428;50.950;6.912;2023-06-01T12:52:51;19.50;99.90
18597;DHT22;9428;50.950;6.912;2023-06-01T12:55:38;19.60;99.90
18597;DHT22;9428;50.950;6.912;2023-06-01T12:58:26;19.60;99.90
18597;DHT22;9428;50.950;6.912;2023-06-01T13:01:15;19.50;99.90
18597;DHT22;9428;50.950;6.912;2023-06-01T13:04:03;19.60;99.90
18597;DHT22;9428;50.950;6.912;2023-06-01T13:06:50;19.70;99.90
18597;DHT22;9428;50.950;6.912;2023-06-01T13:09:38;19.60;99.90
18597;DHT22;9428;50.950;6.912;2023-06-01T13:12:25;19.80;99.90
18597;DHT22;9428;50.950;6.912;2023-06-01T13:15:13;19.80;99.90
18597;DHT22;9428;50.950;6.912;2023-06-01T13:18:02;19.80;99.90
18597;DHT22;9428;50.950;6.912;2023-06-01T13:20:49;19.80;99.90
18597;DHT22;9428;50.950;6.912;2023-06-01T13:23:37;19.70;99.90
18597;DHT22;9428;50.950;6.912;2023-06-01T13:26:26;20.00;99.90
18597;DHT22;9428;50.950;6.912;2023-06-01T13:29:13;19.90;99.90
18597;DHT22;9428;50.950;6.912;2023-06-01T13:32:00;20.00;99.90
18597;DHT22;9428;50.950;6.912;2023-06-01T13:34:50;19.90;99.90
18597;DHT22;9428;50.950;6.912;2023-06-01T13:37:37;20.00;99.90
18597;DHT22;9428;50.950;6.912;2023-06-01T13:40:25;20.00;99.90
18597;DHT22;9428;50.950;6.912;2023-06-01T13:43:12;20.00;99.90
18597;DHT22;9428;50.950;6.912;2023-06-01T13:45:59;20.20;99.90
18597;DHT22;9428;50.950;6.912;2023-06-01T13:48:47;20.20;99.90
18597;DHT22;9428;50.950;6.912;2023-06-01T13:51:36;20.10;99.90
18597;DHT22;9428;50.950;6.912;2023-06-01T13:54:24;20.30;99.90
18597;DHT22;9428;50.950;6.912;2023-06-01T13:57:11;20.10;99.90
18597;DHT22;9428;50.950;6.912;2023-06-01T13:59:58;20.10;99.90
18597;DHT22;9428;50.950;6.912;2023-06-01T14:02:45;20.20;99.90
18597;DHT22;9428;50.950;6.912;2023-06-01T14:05:33;20.30;99.90
18597;DHT22;9428;50.950;6.912;2023-06-01T14:08:21;20.20;99.90
18597;DHT22;9428;50.950;6.912;2023-06-01T14:11:08;20.20;99.90
18597;DHT22;9428;50.950;6.912;2023-06-01T14:13:56;20.20;99.90
18597;DHT22;9428;50.950;6.912;2023-06-01T14:16:43;20.40;99.90
18597;DHT22;9428;50.950;6.912;2023-06-01T14:19:30;20.50;99.90
18597;DHT22;9428;50.950;6.912;2023-06-01T14:22:17;20.30;99.90
18597;DHT22;9428;50.950;6.912;2023-06-01T14:25:07;20.30;99.90
18597;DHT22;9428;50.950;6.912;2023-06-01T14:27:55;20.40;99.90
18597;DHT22;9428;50.950;6.912;2023-06-01T14:30:42;20.30;99.90
18597;DHT22;9428;50.950;6.912;2023-06-01T14:33:29;20.20;99.90
18597;DHT22;9428;50.950;6.912;2023-06-01T14:36:16;20.40;99.90
18597;DHT22;9428;50.950;6.912;2023-06-01T14:39:05;20.60;99.90
18597;DHT22;9428;50.950;6.912;2023-06-01T14:41:54;20.70;99.90
18597;DHT22;9428;50.950;6.912;2023-06-01T14:44:42;20.80;99.90
18597;DHT22;9428;50.950;6.912;2023-06-01T14:47:30;20.70;99.90
18597;DHT22;9428;50.950;6.912;2023-06-01T14:50:17;20.60;99.90
18597;DHT22;9428;50.950;6.912;2023-06-01T14:53:05;20.70;99.90
18597;DHT22;9428;50.950;6.912;2023-06-01T14:55:53;20.50;99.90
18597;DHT22;9428;50.950;6.912;2023-06-01T14:58:42;20.70;99.90
18597;DHT22;9428;50.950;6.912;2023-06-01T15:01:29;20.60;99.90
18597;DHT22;9428;50.950;6.912;2023-06-01T15:04:16;20.50;99.90
18597;DHT22;9428;50.950;6.912;2023-06-01T15:07:04;20.30;99.90
18597;DHT22;9428;50.950;6.912;2023-06-01T15:09:51;20.20;99.90
18597;DHT22;9428;50.950;6.912;2023-06-01T15:12:39;20.40;99.90
18597;DHT22;9428;50.950;6.912;2023-06-01T15:15:27;20.40;99.90
18597;DHT22;9428;50.950;6.912;2023-06-01T15:18:15;20.40;99.90
18597;DHT22;9428;50.950;6.912;2023-06-01T15:21:02;20.60;99.90
18597;DHT22;9428;50.950;6.912;2023-06-01T15:23:50;20.60;99.90
18597;DHT22;9428;50.950;6.912;2023-06-01T15:26:37;20.50;99.90
18597;DHT22;9428;50.950;6.912;2023-06-01T15:29:24;20.40;99.90
18597;DHT22;9428;50.950;6.912;2023-06-01T15:32:13;20.40;99.90
18597;DHT22;9428;50.950;6.912;2023-06-01T15:35:00;20.40;99.90
18597;DHT22;9428;50.950;6.912;2023-06-01T15:37:50;20.20;99.90
18597;DHT22;9428;50.950;6.912;2023-06-01T15:40:37;20.30;99.90
18597;DHT22;9428;50.950;6.912;2023-06-01T15:43:25;20.40;99.90
18597;DHT22;9428;50.950;6.912;2023-06-01T15:46:12;20.30;99.90
18597;DHT22;9428;50.950;6.912;2023-06-01T15:49:00;20.40;99.90
18597;DHT22;9428;50.950;6.912;2023-06-01T15:51:48;20.40;99.90
18597;DHT22;9428;50.950;6.912;2023-06-01T15:54:35;20.50;99.90
18597;DHT22;9428;50.950;6.912;2023-06-01T15:57:23;20.50;99.90
18597;DHT22;9428;50.950;6.912;2023-06-01T16:00:11;20.30;99.90
18597;DHT22;9428;50.950;6.912;2023-06-01T16:02:58;20.50;99.90
18597;DHT22;9428;50.950;6.912;2023-06-01T16:05:47;20.40;99.90
18597;DHT22;9428;50.950;6.912;2023-06-01T16:08:35;20.70;99.90
18597;DHT22;9428;50.950;6.912;2023-06-01T16:11:22;20.50;99.90
18597;DHT22;9428;50.950;6.912;2023-06-01T16:14:09;20.50;99.90
18597;DHT22;9428;50.950;6.912;2023-06-01T16:16:57;20.50;99.90
18597;DHT22;9428;50.950;6.912;2023-06-01T16:19:44;20.70;99.90
18597;DHT22;9428;50.950;6.912;2023-06-01T16:22:33;20.50;99.90
18597;DHT22;9428;50.950;6.912;2023-06-01T16:25:20;20.50;99.90
18597;DHT22;9428;50.950;6.912;2023-06-01T16:28:11;20.60;99.90
18597;DHT22;9428;50.950;6.912;2023-06-01T16:30:58;20.40;99.90
18597;DHT22;9428;50.950;6.912;2023-06-01T16:33:46;20.40;99.90
18597;DHT22;9428;50.950;6.912;2023-06-01T16:36:33;20.20;99.90
18597;DHT22;9428;50.950;6.912;2023-06-01T16:39:22;20.10;99.90
18597;DHT22;9428;50.950;6.912;2023-06-01T16:42:10;19.90;99.90
18597;DHT22;9428;50.950;6.912;2023-06-01T16:44:57;19.90;99.90
18597;DHT22;9428;50.950;6.912;2023-06-01T16:47:44;19.90;99.90
18597;DHT22;9428;50.950;6.912;2023-06-01T16:50:31;19.80;99.90
18597;DHT22;9428;50.950;6.912;2023-06-01T16:53:19;19.80;99.90
18597;DHT22;9428;50.950;6.912;2023-06-01T16:56:07;19.80;99.90
18597;DHT22;9428;50.950;6.912;2023-06-01T16:58:55;19.80;99.90
18597;DHT22;9428;50.950;6.912;2023-06-01T17:01:42;19.80;99.90
18597;DHT22;9428;50.950;6.912;2023-06-01T17:04:29;19.80;99.90
18597;DHT22;9428;50.950;6.912;2023-06-01T17:07:17;19.60;99.90
18597;DHT22;9428;50.950;6.912;2023-06-01T17:10:05;19.60;99.90
18597;DHT22;9428;50.950;6.912;2023-06-01T17:12:54;20.00;99.90
18597;DHT22;9428;50.950;6.912;2023-06-01T17:15:41;19.50;99.90
18597;DHT22;9428;50.950;6.912;2023-06-01T17:18:28;19.40;99.90
18597;DHT22;9428;50.950;6.912;2023-06-01T17:21:15;19.30;99.90
18597;DHT22;9428;50.950;6.912;2023-06-01T17:24:03;19.80;99.90
18597;DHT22;9428;50.950;6.912;2023-06-01T17:26:51;19.40;99.90
18597;DHT22;9428;50.950;6.912;2023-06-01T17:29:39;19.40;99.90
18597;DHT22;9428;50.950;6.912;2023-06-01T17:32:27;19.50;99.90
18597;DHT22;9428;50.950;6.912;2023-06-01T17:35:14;19.50;99.90
18597;DHT22;9428;50.950;6.912;2023-06-01T17:38:01;19.40;99.90
18597;DHT22;9428;50.950;6.912;2023-06-01T17:40:48;19.40;99.90
18597;DHT22;9428;50.950;6.912;2023-06-01T17:43:36;19.40;99.90
18597;DHT22;9428;50.950;6.912;2023-06-01T17:46:24;19.30;99.90
18597;DHT22;9428;50.950;6.912;2023-06-01T17:49:12;19.30;99.90
18597;DHT22;9428;50.950;6.912;2023-06-01T17:52:00;19.30;99.90
18597;DHT22;9428;50.950;6.912;2023-06-01T17:54:47;19.30;99.90
18597;DHT22;9428;50.950;6.912;2023-06-01T17:57:34;19.30;99.90
18597;DHT22;9428;50.950;6.912;2023-06-01T18:00:21;19.20;99.90
18597;DHT22;9428;50.950;6.912;2023-06-01T18:03:10;19.30;99.90